Time;durP1;ratioP1;P1;durP2;ratioP2;P2;SDS_P1;SDS_P2;PMS_P1;PMS_P2;Temp;Humidity;BMP_temperature;BMP_pressure;BME280_temperature;BME280_humidity;BME280_pressure;Samples;Min_cycle;Max_cycle;Signal;HPM_P1;HPM_P2
2023/04/11 00:00:33;;;;;;;18.23;4.10;;;9.40;99.90;;;;;;5094493;28;20283;-76
2023/04/11 00:03:01;;;;;;;20.97;4.80;;;9.50;99.90;;;;;;5093411;28;20688;-76
2023/04/11 00:05:30;;;;;;;19.60;4.67;;;9.50;99.90;;;;;;5094396;28;20204;-77
2023/04/11 00:07:57;;;;;;;13.63;3.77;;;9.60;99.90;;;;;;5093870;28;20204;-78
2023/04/11 00:10:24;;;;;;;12.97;3.23;;;9.60;99.90;;;;;;5092329;28;20234;-79
2023/04/11 00:12:55;;;;;;;21.03;3.70;;;9.60;99.90;;;;;;5093798;28;20307;-77
2023/04/11 00:15:23;;;;;;;17.77;4.73;;;9.60;99.90;;;;;;5093655;28;20201;-78
2023/04/11 00:17:50;;;;;;;15.70;3.27;;;9.60;99.90;;;;;;5092925;28;20211;-77
2023/04/11 00:20:17;;;;;;;16.77;4.27;;;9.60;99.90;;;;;;5093953;28;20204;-79
2023/04/11 00:22:44;;;;;;;13.07;3.23;;;9.70;99.90;;;;;;5094059;28;20200;-79
2023/04/11 00:25:11;;;;;;;16.67;3.40;;;9.70;99.90;;;;;;5101754;28;20298;-80
2023/04/11 00:27:38;;;;;;;17.83;3.33;;;9.80;99.90;;;;;;5114709;28;20196;-85
2023/04/11 00:30:08;;;;;;;12.93;3.00;;;9.70;99.90;;;;;;5095093;28;20293;-76
2023/04/11 00:32:35;;;;;;;13.07;3.93;;;9.80;99.90;;;;;;5093756;28;20307;-78
2023/04/11 00:35:01;;;;;;;10.33;3.10;;;9.80;99.90;;;;;;5094420;28;20213;-78
2023/04/11 00:37:30;;;;;;;10.33;3.30;;;9.80;99.90;;;;;;5093898;28;20527;-77
2023/04/11 00:39:57;;;;;;;17.87;4.53;;;9.80;99.90;;;;;;5093525;28;20223;-77
2023/04/11 00:42:24;;;;;;;19.53;4.20;;;9.80;99.90;;;;;;5094474;28;20722;-78
2023/04/11 00:44:51;;;;;;;16.77;3.60;;;9.70;99.90;;;;;;5093598;28;20216;-78
2023/04/11 00:47:19;;;;;;;16.47;3.87;;;9.70;99.90;;;;;;5106108;28;20530;-79
2023/04/11 00:49:46;;;;;;;15.40;3.60;;;9.60;99.90;;;;;;5114430;28;20188;-77
2023/04/11 00:52:13;;;;;;;18.77;3.53;;;9.70;99.90;;;;;;5100436;28;20719;-77
2023/04/11 00:54:40;;;;;;;9.20;2.60;;;9.70;99.90;;;;;;5093760;28;20200;-78
2023/04/11 00:57:08;;;;;;;12.67;3.10;;;9.70;99.90;;;;;;5093129;28;20212;-77
2023/04/11 00:59:35;;;;;;;11.73;2.67;;;9.70;99.90;;;;;;5093113;28;20202;-80
2023/04/11 01:02:02;;;;;;;13.93;2.63;;;9.70;99.90;;;;;;5093126;28;20205;-76
2023/04/11 01:04:30;;;;;;;11.77;2.43;;;9.60;99.90;;;;;;5093334;28;20197;-75
2023/04/11 01:07:02;;;;;;;9.60;2.60;;;9.60;99.90;;;;;;5092457;28;20654;-76
2023/04/11 01:09:32;;;;;;;14.37;2.57;;;9.60;99.90;;;;;;5093833;28;20227;-78
2023/04/11 01:12:00;;;;;;;14.67;3.27;;;9.60;99.90;;;;;;5093122;28;20307;-77
2023/04/11 01:14:28;;;;;;;14.70;2.77;;;9.50;99.90;;;;;;5092844;28;20254;-80
2023/04/11 01:16:56;;;;;;;10.17;2.50;;;9.50;99.90;;;;;;5111565;28;20316;-77
2023/04/11 01:19:25;;;;;;;11.50;2.57;;;9.50;99.90;;;;;;5113007;28;20200;-77
2023/04/11 01:21:55;;;;;;;10.07;2.53;;;9.40;99.90;;;;;;5111923;28;20227;-78
2023/04/11 01:24:24;;;;;;;14.13;2.53;;;9.40;99.90;;;;;;5113733;28;20203;-76
2023/04/11 01:26:51;;;;;;;9.97;2.17;;;9.40;99.90;;;;;;5113244;28;20202;-79
2023/04/11 01:29:18;;;;;;;11.37;2.70;;;9.30;99.90;;;;;;5101442;28;20846;-82
2023/04/11 01:31:45;;;;;;;11.77;2.60;;;9.30;99.90;;;;;;5093167;28;20216;-79
2023/04/11 01:34:14;;;;;;;13.90;2.60;;;9.30;99.90;;;;;;5092011;28;20211;-77
2023/04/11 01:36:42;;;;;;;13.87;2.87;;;9.30;99.90;;;;;;5092848;28;20192;-76
2023/04/11 01:39:09;;;;;;;12.10;2.77;;;9.30;99.90;;;;;;5092873;28;20616;-75
2023/04/11 01:41:38;;;;;;;14.63;3.43;;;9.40;99.90;;;;;;5092492;28;20573;-78
2023/04/11 01:44:05;;;;;;;12.83;3.00;;;9.40;99.90;;;;;;5092545;28;20291;-78
2023/04/11 01:46:32;;;;;;;16.70;3.33;;;9.40;99.90;;;;;;5092787;28;20567;-77
2023/04/11 01:49:00;;;;;;;14.20;2.87;;;9.40;99.90;;;;;;5092829;28;20196;-79
2023/04/11 01:51:27;;;;;;;14.10;3.03;;;9.40;99.90;;;;;;5092663;28;20216;-77
2023/04/11 01:53:54;;;;;;;13.03;2.30;;;9.40;99.90;;;;;;5092711;28;20268;-78
2023/04/11 01:56:21;;;;;;;13.83;3.30;;;9.40;99.90;;;;;;5091784;28;20192;-77
2023/04/11 01:58:50;;;;;;;14.00;3.67;;;9.40;99.90;;;;;;5092447;28;20331;-75
2023/04/11 02:01:18;;;;;;;11.83;3.00;;;9.40;99.90;;;;;;5092733;28;20207;-76
2023/04/11 02:03:45;;;;;;;9.47;2.40;;;9.40;99.90;;;;;;5092211;28;20196;-77
2023/04/11 02:06:12;;;;;;;15.97;3.33;;;9.30;99.90;;;;;;5092562;28;20213;-75
2023/04/11 02:08:38;;;;;;;13.27;4.30;;;9.40;99.90;;;;;;5092449;28;20200;-77
2023/04/11 02:11:06;;;;;;;15.40;2.97;;;9.30;99.90;;;;;;5092020;28;20304;-76
2023/04/11 02:13:34;;;;;;;12.10;2.90;;;9.40;99.90;;;;;;5092627;28;20579;-78
2023/04/11 02:16:07;;;;;;;11.37;3.00;;;9.40;99.90;;;;;;5102047;28;20204;-76
2023/04/11 02:18:34;;;;;;;16.87;2.63;;;9.40;99.90;;;;;;5111498;28;20302;-76
2023/04/11 02:21:02;;;;;;;8.33;2.73;;;9.30;99.90;;;;;;5112812;28;20203;-78
2023/04/11 02:23:29;;;;;;;11.90;2.83;;;9.30;99.90;;;;;;5104614;28;20200;-78
2023/04/11 02:25:56;;;;;;;10.23;3.17;;;9.20;99.90;;;;;;5092075;28;20201;-77
2023/04/11 02:28:22;;;;;;;14.40;2.80;;;9.30;99.90;;;;;;5092821;28;20291;-76
2023/04/11 02:30:50;;;;;;;13.23;2.70;;;9.30;99.90;;;;;;5092257;28;20224;-76
2023/04/11 02:33:18;;;;;;;8.80;2.10;;;9.30;99.90;;;;;;5094561;28;20287;-77
2023/04/11 02:35:46;;;;;;;15.73;3.33;;;9.30;99.90;;;;;;5096297;28;20201;-76
2023/04/11 02:38:13;;;;;;;14.70;3.00;;;9.30;99.90;;;;;;5095115;28;20640;-76
2023/04/11 02:40:40;;;;;;;16.43;3.63;;;9.30;99.90;;;;;;5095673;28;20204;-77
2023/04/11 02:43:07;;;;;;;13.10;3.23;;;9.30;99.90;;;;;;5096391;28;20192;-77
2023/04/11 02:45:34;;;;;;;13.27;2.67;;;9.30;99.90;;;;;;5095349;28;21114;-76
2023/04/11 02:48:01;;;;;;;22.70;4.03;;;9.30;99.90;;;;;;5095581;28;20208;-76
2023/04/11 02:50:30;;;;;;;8.50;2.17;;;9.30;99.90;;;;;;5095717;28;20197;-76
2023/04/11 02:52:57;;;;;;;18.40;3.60;;;9.30;99.90;;;;;;5095169;28;20228;-77
2023/04/11 02:55:24;;;;;;;10.20;2.60;;;9.30;99.90;;;;;;5095507;28;20200;-75
2023/04/11 02:57:51;;;;;;;6.97;1.90;;;9.30;99.90;;;;;;5095169;28;20293;-75
2023/04/11 03:00:20;;;;;;;10.83;2.37;;;9.30;99.90;;;;;;5095387;28;20291;-77
2023/04/11 03:02:47;;;;;;;8.57;2.43;;;9.30;99.90;;;;;;5095569;28;20192;-76
2023/04/11 03:05:15;;;;;;;11.40;2.10;;;9.30;99.90;;;;;;5095122;28;20573;-78
2023/04/11 03:07:43;;;;;;;19.43;3.60;;;9.30;99.90;;;;;;5095011;28;20205;-78
2023/04/11 03:10:11;;;;;;;11.43;2.90;;;9.40;99.90;;;;;;5095685;28;20192;-75
2023/04/11 03:12:37;;;;;;;8.33;2.23;;;9.30;99.90;;;;;;5095179;28;20526;-76
2023/04/11 03:15:05;;;;;;;12.17;2.47;;;9.30;99.90;;;;;;5095659;28;20236;-77
2023/04/11 03:17:33;;;;;;;14.20;3.07;;;9.30;99.90;;;;;;5095466;28;20208;-79
2023/04/11 03:20:00;;;;;;;11.40;2.43;;;9.30;99.90;;;;;;5094440;28;20351;-76
2023/04/11 03:22:27;;;;;;;9.27;2.27;;;9.30;99.90;;;;;;5100021;28;20507;-77
2023/04/11 03:24:55;;;;;;;7.23;2.00;;;9.30;99.90;;;;;;5115744;28;20196;-76
2023/04/11 03:27:22;;;;;;;10.37;2.00;;;9.20;99.90;;;;;;5115368;28;20224;-81
2023/04/11 03:29:49;;;;;;;9.93;1.90;;;9.20;99.90;;;;;;5115505;28;20206;-76
2023/04/11 03:32:16;;;;;;;11.70;2.17;;;9.20;99.90;;;;;;5110377;28;20216;-82
2023/04/11 03:34:43;;;;;;;15.10;2.33;;;9.20;99.90;;;;;;5094687;28;20279;-78
2023/04/11 03:37:10;;;;;;;12.53;3.20;;;9.10;99.90;;;;;;5107457;28;20596;-78
2023/04/11 03:39:36;;;;;;;11.57;2.00;;;9.10;99.90;;;;;;5110284;28;20300;-77
2023/04/11 03:42:05;;;;;;;9.40;2.47;;;9.10;99.90;;;;;;5093681;28;20200;-76
2023/04/11 03:44:32;;;;;;;7.57;1.97;;;9.10;99.90;;;;;;5094573;28;20201;-77
2023/04/11 03:46:59;;;;;;;10.07;2.03;;;9.10;99.90;;;;;;5094256;28;20200;-76
2023/04/11 03:49:25;;;;;;;7.50;1.93;;;9.10;99.90;;;;;;5093277;28;20224;-77
2023/04/11 03:51:52;;;;;;;7.77;1.97;;;9.10;99.90;;;;;;5094647;28;20228;-84
2023/04/11 03:54:19;;;;;;;11.43;2.17;;;9.00;99.90;;;;;;5096138;28;20620;-85
2023/04/11 03:56:46;;;;;;;7.80;1.97;;;9.00;99.90;;;;;;5099920;28;20206;-82
2023/04/11 03:59:15;;;;;;;11.53;2.30;;;9.00;99.90;;;;;;5115138;28;20239;-78
2023/04/11 04:01:42;;;;;;;12.27;2.50;;;9.00;99.90;;;;;;5115217;28;20219;-83
2023/04/11 04:04:09;;;;;;;11.13;2.00;;;8.90;99.90;;;;;;5114826;28;20592;-83
2023/04/11 04:06:36;;;;;;;10.20;2.50;;;8.90;99.90;;;;;;5115359;28;20200;-83
2023/04/11 04:09:03;;;;;;;12.53;2.20;;;8.80;99.90;;;;;;5096401;28;20227;-79
2023/04/11 04:11:31;;;;;;;12.60;3.13;;;8.80;99.90;;;;;;5095057;28;20322;-80
2023/04/11 04:13:58;;;;;;;11.23;2.00;;;8.80;99.90;;;;;;5094552;28;20243;-81
2023/04/11 04:16:27;;;;;;;13.80;2.50;;;8.80;99.90;;;;;;5094907;28;20552;-84
2023/04/11 04:18:53;;;;;;;12.57;2.57;;;8.80;99.90;;;;;;5101753;28;20263;-83
2023/04/11 04:21:20;;;;;;;14.13;3.87;;;8.80;99.90;;;;;;5114779;28;20212;-80
2023/04/11 04:23:47;;;;;;;12.73;3.07;;;8.70;99.90;;;;;;5114671;28;20254;-84
2023/04/11 04:26:15;;;;;;;8.33;2.13;;;8.70;99.90;;;;;;5114865;28;20303;-80
2023/04/11 04:28:45;;;;;;;8.30;1.87;;;8.70;99.90;;;;;;5114718;28;20290;-85
2023/04/11 04:31:13;;;;;;;8.43;2.30;;;8.70;99.90;;;;;;5114144;28;20204;-82
2023/04/11 04:33:43;;;;;;;8.87;2.90;;;8.70;99.90;;;;;;5113953;28;20212;-82
2023/04/11 04:36:11;;;;;;;9.13;2.53;;;8.70;99.90;;;;;;5114048;28;20775;-79
2023/04/11 04:38:40;;;;;;;7.93;2.70;;;8.70;99.90;;;;;;5113519;28;20274;-79
2023/04/11 04:41:14;;;;;;;11.47;2.60;;;8.70;99.90;;;;;;5114125;28;20287;-82
2023/04/11 04:43:41;;;;;;;11.47;1.97;;;8.70;99.90;;;;;;5093501;28;20283;-81
2023/04/11 04:46:09;;;;;;;11.33;2.60;;;8.70;99.90;;;;;;5095779;28;20192;-80
2023/04/11 04:48:36;;;;;;;9.70;2.60;;;8.70;99.90;;;;;;5113652;28;20227;-77
2023/04/11 04:51:06;;;;;;;10.43;2.37;;;8.70;99.90;;;;;;5113652;28;20243;-84
2023/04/11 04:53:37;;;;;;;8.33;2.10;;;8.70;99.90;;;;;;5113858;28;20307;-81
2023/04/11 04:56:04;;;;;;;8.77;2.00;;;8.70;99.90;;;;;;5113224;28;20192;-82
2023/04/11 04:59:36;;;;;;;10.70;3.30;;;8.70;99.90;;;;;;5110642;27;20864;-81
2023/04/11 05:02:03;;;;;;;12.13;2.60;;;8.70;99.90;;;;;;5098562;28;20200;-83
2023/04/11 05:04:32;;;;;;;9.40;2.50;;;8.70;99.90;;;;;;5090764;28;20200;-80
2023/04/11 05:07:00;;;;;;;9.43;1.90;;;8.70;99.90;;;;;;5109806;28;20500;-85
2023/04/11 05:09:27;;;;;;;6.00;2.00;;;8.70;99.90;;;;;;5111361;28;20249;-80
2023/04/11 05:11:55;;;;;;;10.73;2.63;;;8.70;99.90;;;;;;5112153;28;20200;-86
2023/04/11 05:14:22;;;;;;;9.50;2.03;;;8.80;99.90;;;;;;5111241;28;20204;-86
2023/04/11 05:16:51;;;;;;;9.10;1.90;;;8.80;99.90;;;;;;5112194;28;20203;-80
2023/04/11 05:19:18;;;;;;;11.40;2.67;;;8.80;99.90;;;;;;5111305;28;20223;-85
2023/04/11 05:21:45;;;;;;;11.50;2.30;;;8.80;99.90;;;;;;5107925;28;20204;-84
2023/04/11 05:24:12;;;;;;;11.93;2.47;;;8.70;99.90;;;;;;5090626;28;20264;-86
2023/04/11 05:26:39;;;;;;;12.03;2.30;;;8.80;99.90;;;;;;5090338;28;20208;-86
2023/04/11 05:29:06;;;;;;;7.73;2.23;;;8.80;99.90;;;;;;5090654;28;20284;-84
2023/04/11 05:31:33;;;;;;;12.83;2.30;;;8.70;99.90;;;;;;5091378;28;20205;-85
2023/04/11 05:34:02;;;;;;;10.07;1.87;;;8.70;99.90;;;;;;5090369;28;20288;-79
2023/04/11 05:36:29;;;;;;;12.60;2.20;;;8.80;99.90;;;;;;5090977;28;20193;-84
2023/04/11 05:38:56;;;;;;;10.83;2.63;;;8.80;99.90;;;;;;5090326;28;20228;-81
2023/04/11 05:41:23;;;;;;;13.47;2.77;;;8.80;99.90;;;;;;5090217;28;20287;-84
2023/04/11 05:43:50;;;;;;;14.63;2.60;;;8.80;99.90;;;;;;5090119;28;20205;-83
2023/04/11 05:46:17;;;;;;;13.23;2.60;;;8.90;99.90;;;;;;5090413;28;20228;-85
2023/04/11 05:48:44;;;;;;;14.00;2.90;;;8.90;99.90;;;;;;5090092;28;20284;-82
2023/04/11 05:51:12;;;;;;;7.67;2.50;;;8.90;99.90;;;;;;5090355;28;20196;-85
2023/04/11 05:53:40;;;;;;;13.60;2.37;;;8.90;99.90;;;;;;5090770;28;20300;-85
2023/04/11 05:56:07;;;;;;;17.83;2.80;;;9.00;99.90;;;;;;5090392;28;20251;-86
2023/04/11 05:58:36;;;;;;;10.60;2.50;;;8.90;99.90;;;;;;5090032;28;20235;-79
2023/04/11 06:01:04;;;;;;;11.00;2.70;;;8.90;99.90;;;;;;5089587;28;20208;-81
2023/04/11 06:03:30;;;;;;;9.17;2.10;;;9.00;99.90;;;;;;5104964;28;20617;-83
2023/04/11 06:05:57;;;;;;;13.00;3.30;;;9.00;99.90;;;;;;5110320;28;20227;-83
2023/04/11 06:08:26;;;;;;;11.83;2.67;;;9.00;99.90;;;;;;5109621;28;20203;-83
2023/04/11 06:10:53;;;;;;;12.33;3.00;;;9.00;99.90;;;;;;5096359;28;20299;-84
2023/04/11 06:13:20;;;;;;;13.03;2.70;;;9.00;99.90;;;;;;5080740;28;20284;-83
2023/04/11 06:15:47;;;;;;;11.57;2.47;;;9.10;99.90;;;;;;5076043;28;20288;-84
2023/04/11 06:18:13;;;;;;;11.80;2.87;;;9.10;99.90;;;;;;5075537;28;20319;-84
2023/04/11 06:20:40;;;;;;;10.13;3.30;;;9.10;99.90;;;;;;5075042;28;20225;-84
2023/04/11 06:23:07;;;;;;;17.47;3.17;;;9.10;99.90;;;;;;5075533;28;20193;-84
2023/04/11 06:25:35;;;;;;;14.13;3.17;;;9.10;99.90;;;;;;5075692;28;20297;-84
2023/04/11 06:28:02;;;;;;;16.37;2.93;;;9.10;99.90;;;;;;5075649;28;20206;-82
2023/04/11 06:30:29;;;;;;;16.30;2.83;;;9.20;99.90;;;;;;5075601;28;20201;-82
2023/04/11 06:32:57;;;;;;;16.70;2.70;;;9.20;99.90;;;;;;5085349;28;20269;-79
2023/04/11 06:35:25;;;;;;;17.87;3.10;;;9.20;99.90;;;;;;5095784;28;20196;-80
2023/04/11 06:38:06;;;;;;;11.03;2.60;;;9.30;99.90;;;;;;5085062;28;20232;-77
2023/04/11 06:40:35;;;;;;;11.17;3.00;;;9.30;99.90;;;;;;5085571;28;20232;-83
2023/04/11 06:43:02;;;;;;;13.43;3.70;;;9.30;99.90;;;;;;5095952;28;20232;-80
2023/04/11 06:45:29;;;;;;;9.37;2.80;;;9.30;99.90;;;;;;5091966;28;20259;-85
2023/04/11 06:47:56;;;;;;;9.07;2.40;;;9.30;99.90;;;;;;5076095;28;20215;-82
2023/04/11 06:50:22;;;;;;;13.40;3.50;;;9.30;99.90;;;;;;5081658;28;20211;-82
2023/04/11 06:52:49;;;;;;;12.40;3.47;;;9.40;99.90;;;;;;5082019;28;20208;-85
2023/04/11 06:55:16;;;;;;;13.20;2.60;;;9.40;99.90;;;;;;5095869;28;20193;-83
2023/04/11 06:57:45;;;;;;;12.77;3.30;;;9.40;99.90;;;;;;5095410;28;20319;-81
2023/04/11 07:00:13;;;;;;;12.03;3.20;;;9.40;99.90;;;;;;5075727;28;20292;-84
2023/04/11 07:02:40;;;;;;;10.13;3.00;;;9.50;99.90;;;;;;5075208;28;20204;-84
2023/04/11 07:05:09;;;;;;;13.53;2.77;;;9.50;99.90;;;;;;5074643;28;20212;-80
2023/04/11 07:07:36;;;;;;;14.00;3.20;;;9.60;99.90;;;;;;5074542;28;20205;-79
2023/04/11 07:10:03;;;;;;;14.17;2.60;;;9.60;99.90;;;;;;5073768;28;20208;-84
2023/04/11 07:12:33;;;;;;;11.13;2.43;;;9.60;99.90;;;;;;5074528;28;20207;-83
2023/04/11 07:15:02;;;;;;;13.43;2.87;;;9.70;99.90;;;;;;5074702;28;20207;-86
2023/04/11 07:17:29;;;;;;;10.80;3.17;;;9.70;99.90;;;;;;5074954;28;20205;-82
2023/04/11 07:19:56;;;;;;;11.97;2.70;;;9.80;99.90;;;;;;5073621;28;20225;-80
2023/04/11 07:22:23;;;;;;;10.43;2.80;;;9.90;99.90;;;;;;5073009;28;20643;-79
2023/04/11 07:24:51;;;;;;;14.53;3.37;;;10.00;99.90;;;;;;5073731;28;20207;-83
2023/04/11 07:27:20;;;;;;;9.60;2.33;;;10.00;99.90;;;;;;5073150;28;20200;-82
2023/04/11 07:29:47;;;;;;;10.50;2.97;;;10.00;99.90;;;;;;5073650;28;20201;-79
2023/04/11 07:32:15;;;;;;;14.90;2.97;;;10.00;99.90;;;;;;5074191;28;20201;-81
2023/04/11 07:34:42;;;;;;;12.13;2.57;;;10.10;99.90;;;;;;5073535;28;20209;-82
2023/04/11 07:37:09;;;;;;;8.80;2.63;;;10.10;99.90;;;;;;5073775;28;20211;-81
2023/04/11 07:39:36;;;;;;;24.80;4.13;;;10.10;99.90;;;;;;5073081;28;20575;-82
2023/04/11 07:42:03;;;;;;;13.97;2.97;;;10.10;99.90;;;;;;5073000;28;20201;-78
2023/04/11 07:44:30;;;;;;;11.83;2.50;;;10.20;99.90;;;;;;5086691;28;20496;-81
2023/04/11 07:46:57;;;;;;;12.53;2.30;;;10.30;99.90;;;;;;5090613;28;20192;-82
2023/04/11 07:49:26;;;;;;;9.20;2.80;;;10.30;99.90;;;;;;5086938;28;20216;-82
2023/04/11 07:51:52;;;;;;;11.60;2.67;;;10.30;99.90;;;;;;5084193;28;20201;-81
2023/04/11 07:54:19;;;;;;;11.47;2.40;;;10.30;99.90;;;;;;5087657;28;20196;-82
2023/04/11 07:56:46;;;;;;;10.67;2.73;;;10.40;99.90;;;;;;5081913;28;20655;-81
2023/04/11 07:59:14;;;;;;;10.77;2.60;;;10.50;99.90;;;;;;5088944;28;20236;-85
2023/04/11 08:01:41;;;;;;;11.90;2.73;;;10.60;99.90;;;;;;5085144;28;20201;-77
2023/04/11 08:04:08;;;;;;;14.30;3.40;;;10.70;99.90;;;;;;5083882;28;20295;-84
2023/04/11 08:06:36;;;;;;;16.07;2.77;;;11.00;99.90;;;;;;5079285;28;20303;-86
2023/04/11 08:09:04;;;;;;;12.50;3.30;;;11.20;99.90;;;;;;5092535;28;20279;-83
2023/04/11 08:11:31;;;;;;;9.23;2.33;;;11.20;99.90;;;;;;5090014;28;20200;-79
2023/04/11 08:13:58;;;;;;;10.43;2.80;;;11.30;99.90;;;;;;5094191;28;20292;-83
2023/04/11 08:16:24;;;;;;;13.97;2.90;;;11.40;99.90;;;;;;5092640;28;20288;-80
2023/04/11 08:18:51;;;;;;;12.60;2.60;;;11.30;99.90;;;;;;5092860;28;20603;-80
2023/04/11 08:21:18;;;;;;;14.20;2.57;;;11.30;99.90;;;;;;5072942;28;20209;-80
2023/04/11 08:23:46;;;;;;;9.10;2.30;;;11.30;99.90;;;;;;5072495;28;20224;-83
2023/04/11 08:26:13;;;;;;;16.77;2.97;;;11.40;99.90;;;;;;5092069;28;20295;-81
2023/04/11 08:28:40;;;;;;;11.90;3.20;;;11.40;99.90;;;;;;5093648;28;20672;-85
2023/04/11 08:31:09;;;;;;;13.13;2.87;;;11.50;99.90;;;;;;5087775;28;20664;-77
2023/04/11 08:33:35;;;;;;;20.07;4.27;;;11.70;99.90;;;;;;5072228;28;20251;-78
2023/04/11 08:36:02;;;;;;;14.37;2.50;;;11.90;99.90;;;;;;5072534;28;20197;-78
2023/04/11 08:38:29;;;;;;;14.17;2.90;;;12.20;99.90;;;;;;5070963;28;20221;-77
2023/04/11 08:40:57;;;;;;;12.83;2.47;;;12.40;99.90;;;;;;5072088;28;20216;-77
2023/04/11 08:43:24;;;;;;;15.33;3.83;;;12.60;99.90;;;;;;5072346;28;20589;-77
2023/04/11 08:45:51;;;;;;;12.30;3.10;;;12.80;99.90;;;;;;5073622;28;20197;-83
2023/04/11 08:48:20;;;;;;;14.47;3.03;;;12.80;99.90;;;;;;5087382;28;20204;-81
2023/04/11 08:50:47;;;;;;;14.73;2.97;;;12.80;99.90;;;;;;5092016;28;20196;-77
2023/04/11 08:53:16;;;;;;;12.70;2.37;;;12.80;99.90;;;;;;5092251;28;20279;-81
2023/04/11 08:55:47;;;;;;;10.20;2.20;;;12.90;99.90;;;;;;5093062;28;20204;-83
2023/04/11 08:58:16;;;;;;;11.80;2.70;;;13.00;99.90;;;;;;5075989;28;20335;-80
2023/04/11 09:00:43;;;;;;;8.20;1.83;;;13.10;99.90;;;;;;5072456;28;20316;-79
2023/04/11 09:03:11;;;;;;;13.30;3.30;;;13.30;99.90;;;;;;5073249;28;20205;-81
2023/04/11 09:05:39;;;;;;;10.03;2.40;;;13.50;99.90;;;;;;5072563;28;20284;-79
2023/04/11 09:08:08;;;;;;;9.93;2.87;;;13.60;99.90;;;;;;5072186;28;20288;-77
2023/04/11 09:10:35;;;;;;;9.27;3.40;;;13.50;99.90;;;;;;5071791;28;20197;-79
2023/04/11 09:13:20;;;;;;;9.70;3.07;;;13.50;99.90;;;;;;5071535;28;20233;-82
2023/04/11 09:15:47;;;;;;;14.80;3.07;;;13.50;99.90;;;;;;5077220;28;20208;-79
2023/04/11 09:18:31;;;;;;;14.63;3.03;;;13.50;99.90;;;;;;5090220;28;20311;-77
2023/04/11 09:21:00;;;;;;;9.93;2.63;;;13.30;99.90;;;;;;5071027;28;20258;-78
2023/04/11 09:23:27;;;;;;;11.07;2.60;;;13.30;99.90;;;;;;5071623;28;20224;-77
2023/04/11 09:25:54;;;;;;;9.10;2.40;;;13.30;99.90;;;;;;5070613;28;20212;-81
2023/04/11 09:28:23;;;;;;;12.60;3.17;;;13.40;99.90;;;;;;5072776;28;20202;-84
2023/04/11 09:30:51;;;;;;;12.00;2.53;;;13.40;99.90;;;;;;5071842;28;20223;-79
2023/04/11 09:33:21;;;;;;;10.07;2.30;;;13.20;99.90;;;;;;5071955;28;20301;-82
2023/04/11 09:35:48;;;;;;;8.17;2.43;;;13.20;99.90;;;;;;5072585;28;20244;-78
2023/04/11 09:38:27;;;;;;;10.53;2.20;;;13.30;99.90;;;;;;5070962;28;20232;-81
2023/04/11 09:40:55;;;;;;;9.73;3.60;;;13.20;99.90;;;;;;5072090;28;20209;-85
2023/04/11 09:43:23;;;;;;;14.67;3.30;;;13.20;99.90;;;;;;5071891;28;20201;-83
2023/04/11 09:46:08;;;;;;;11.67;2.60;;;13.20;99.90;;;;;;5074759;28;20516;-78
2023/04/11 09:48:36;;;;;;;12.23;2.73;;;13.30;99.90;;;;;;5075050;28;20189;-78
2023/04/11 09:51:04;;;;;;;9.47;2.37;;;13.50;99.90;;;;;;5075344;28;20208;-81
2023/04/11 09:53:33;;;;;;;10.20;2.57;;;13.60;99.90;;;;;;5075443;28;20197;-83
2023/04/11 09:56:00;;;;;;;11.67;2.93;;;13.60;99.90;;;;;;5076226;28;20197;-83
2023/04/11 09:58:31;;;;;;;10.47;2.67;;;13.70;99.90;;;;;;5075702;28;20237;-84
2023/04/11 10:01:00;;;;;;;8.13;2.30;;;13.80;99.90;;;;;;5075178;28;20289;-80
2023/04/11 10:03:27;;;;;;;13.83;3.80;;;13.80;99.90;;;;;;5075749;28;20197;-82
2023/04/11 10:05:56;;;;;;;14.77;3.27;;;14.00;99.90;;;;;;5076210;28;20193;-80
2023/04/11 10:08:29;;;;;;;14.30;2.50;;;14.00;99.90;;;;;;5075325;28;20199;-82
2023/04/11 10:10:56;;;;;;;12.90;2.17;;;13.80;99.90;;;;;;5075879;28;20286;-78
2023/04/11 10:13:42;;;;;;;8.10;2.40;;;13.80;99.90;;;;;;5075201;28;20863;-81
2023/04/11 10:16:12;;;;;;;13.00;2.73;;;13.80;99.90;;;;;;5074776;28;20294;-80
2023/04/11 10:19:18;;;;;;;8.77;2.53;;;13.90;99.90;;;;;;5075358;28;20197;-78
2023/04/11 10:21:45;;;;;;;11.77;3.20;;;14.00;99.90;;;;;;5074593;28;20193;-78
2023/04/11 10:24:14;;;;;;;11.63;2.67;;;14.10;99.90;;;;;;5074948;28;20201;-78
2023/04/11 10:26:49;;;;;;;9.27;2.33;;;14.00;99.90;;;;;;5074768;28;20200;-80
2023/04/11 10:29:48;;;;;;;13.33;3.60;;;14.00;99.90;;;;;;5089452;28;20227;-77
2023/04/11 10:32:20;;;;;;;9.60;3.00;;;13.90;99.90;;;;;;5085205;28;20289;-81
2023/04/11 10:35:32;;;;;;;11.93;2.47;;;14.00;99.90;;;;;;5075151;28;20242;-80
2023/04/11 10:37:59;;;;;;;8.47;2.33;;;14.00;99.90;;;;;;5074950;28;20307;-79
2023/04/11 10:40:26;;;;;;;12.73;2.67;;;14.00;99.90;;;;;;5094293;28;20216;-80
2023/04/11 10:42:53;;;;;;;10.00;2.27;;;13.90;99.90;;;;;;5094350;28;20189;-80
2023/04/11 10:45:24;;;;;;;8.93;2.57;;;13.80;99.90;;;;;;5093548;28;20576;-79
2023/04/11 10:48:15;;;;;;;9.00;1.97;;;13.90;99.90;;;;;;5095360;28;20201;-78
2023/04/11 10:50:43;;;;;;;11.07;2.50;;;14.10;99.90;;;;;;5079542;28;20196;-85
2023/04/11 10:53:35;;;;;;;11.67;2.43;;;14.10;99.90;;;;;;5076395;28;20245;-82
2023/04/11 10:56:02;;;;;;;8.60;1.97;;;14.30;99.90;;;;;;5075269;28;20285;-80
2023/04/11 10:58:38;;;;;;;10.87;2.83;;;14.60;99.90;;;;;;5075133;28;20229;-82
2023/04/11 11:01:18;;;;;;;9.20;2.60;;;14.80;99.90;;;;;;5075566;28;20316;-81
2023/04/11 11:03:52;;;;;;;8.90;2.80;;;14.90;99.90;;;;;;5075720;28;20194;-84
2023/04/11 11:06:20;;;;;;;11.43;2.90;;;15.00;99.90;;;;;;5074916;28;20201;-81
2023/04/11 11:08:47;;;;;;;17.23;4.20;;;15.00;99.90;;;;;;5074827;28;20205;-85
2023/04/11 11:11:15;;;;;;;13.03;3.97;;;15.10;99.90;;;;;;5073313;28;20738;-76
2023/04/11 11:13:43;;;;;;;11.03;2.87;;;15.10;99.90;;;;;;5073936;28;20224;-83
2023/04/11 11:16:14;;;;;;;9.47;2.73;;;15.10;99.90;;;;;;5074670;28;20296;-79
2023/04/11 11:18:45;;;;;;;9.30;2.97;;;15.20;99.90;;;;;;5073439;28;20193;-82
2023/04/11 11:21:13;;;;;;;10.40;2.97;;;15.20;99.90;;;;;;5074390;28;20217;-78
2023/04/11 11:23:40;;;;;;;9.93;3.27;;;15.30;99.90;;;;;;5073625;28;20221;-77
2023/04/11 11:26:08;;;;;;;11.00;3.28;;;15.30;99.90;;;;;;5074023;28;20280;-83
2023/04/11 11:28:46;;;;;;;11.97;2.50;;;15.30;99.90;;;;;;5073648;28;20197;-85
2023/04/11 11:31:13;;;;;;;16.42;3.47;;;15.40;99.90;;;;;;5073534;28;20201;-84
2023/04/11 11:33:42;;;;;;;11.63;3.07;;;15.40;99.90;;;;;;5072685;28;20280;-78
2023/04/11 11:36:14;;;;;;;14.47;3.13;;;15.40;99.90;;;;;;5077224;28;20204;-81
2023/04/11 11:38:41;;;;;;;11.18;3.53;;;15.50;99.90;;;;;;5082970;28;20296;-84
2023/04/11 11:41:08;;;;;;;14.10;3.87;;;15.40;99.90;;;;;;5079194;28;20213;-83
2023/04/11 11:43:39;;;;;;;17.35;4.30;;;15.50;99.90;;;;;;5082294;28;20211;-87
2023/04/11 11:46:12;;;;;;;12.10;3.80;;;15.50;99.90;;;;;;5074666;28;20189;-79
2023/04/11 11:48:40;;;;;;;13.80;3.17;;;15.30;99.90;;;;;;5074909;28;20191;-79
2023/04/11 11:51:08;;;;;;;10.03;2.60;;;15.40;99.90;;;;;;5088163;28;20594;-81
2023/04/11 11:53:35;;;;;;;14.47;2.93;;;15.40;99.90;;;;;;5075496;28;20712;-79
2023/04/11 11:56:13;;;;;;;10.40;2.30;;;15.40;99.90;;;;;;5074250;28;20228;-79
2023/04/11 11:58:43;;;;;;;10.20;2.37;;;15.30;99.90;;;;;;5074176;28;20236;-81
2023/04/11 12:01:13;;;;;;;18.23;5.17;;;15.30;99.90;;;;;;5073131;28;20267;-78
2023/04/11 12:03:40;;;;;;;17.30;4.10;;;15.30;99.90;;;;;;5074087;28;20644;-79
2023/04/11 12:06:10;;;;;;;11.47;3.20;;;15.30;99.90;;;;;;5073797;28;20288;-82
2023/04/11 12:08:42;;;;;;;15.50;4.13;;;15.20;99.90;;;;;;5073125;28;20258;-81
2023/04/11 12:11:14;;;;;;;10.63;3.20;;;15.30;99.90;;;;;;5073420;28;20570;-84
2023/04/11 12:13:41;;;;;;;10.13;3.05;;;15.40;99.90;;;;;;5073891;28;20209;-80
2023/04/11 12:16:08;;;;;;;11.10;3.10;;;15.40;99.90;;;;;;5073160;28;20186;-81
2023/04/11 12:18:35;;;;;;;12.90;2.93;;;15.30;99.90;;;;;;5072951;28;20284;-78
2023/04/11 12:21:02;;;;;;;13.95;3.80;;;15.30;99.90;;;;;;5072998;28;20256;-80
2023/04/11 12:23:30;;;;;;;14.68;3.15;;;15.30;99.90;;;;;;5071761;28;20205;-77
2023/04/11 12:25:57;;;;;;;11.37;2.97;;;15.30;99.90;;;;;;5072541;28;20205;-78
2023/04/11 12:28:24;;;;;;;13.33;4.10;;;15.40;99.90;;;;;;5072224;28;20558;-78
2023/04/11 12:30:51;;;;;;;14.37;3.50;;;15.40;99.90;;;;;;5072192;28;20571;-79
2023/04/11 12:33:18;;;;;;;14.77;4.57;;;15.40;99.90;;;;;;5072478;28;20231;-79
2023/04/11 12:35:45;;;;;;;15.03;4.13;;;15.30;99.90;;;;;;5071879;28;20680;-79
2023/04/11 12:38:12;;;;;;;10.52;3.53;;;15.10;99.90;;;;;;5072713;28;20221;-78
2023/04/11 12:40:40;;;;;;;10.70;3.93;;;15.10;99.90;;;;;;5072848;28;20213;-77
2023/04/11 12:43:07;;;;;;;13.20;4.27;;;15.00;99.90;;;;;;5071931;28;20197;-79
2023/04/11 12:45:34;;;;;;;17.10;3.83;;;15.00;99.90;;;;;;5073257;28;20223;-82
2023/04/11 12:48:01;;;;;;;17.33;5.10;;;15.00;99.90;;;;;;5085313;28;20201;-81
2023/04/11 12:50:28;;;;;;;15.50;5.47;;;14.90;99.90;;;;;;5085503;28;20200;-81
2023/04/11 12:52:55;;;;;;;13.50;4.03;;;15.00;99.90;;;;;;5093226;28;20311;-79